Time;durP1;ratioP1;P1;durP2;ratioP2;P2;SDS_P1;SDS_P2;PMS_P1;PMS_P2;Temp;Humidity;BMP_temperature;BMP_pressure;BME280_temperature;BME280_humidity;BME280_pressure;Samples;Min_cycle;Max_cycle;Signal;HPM_P1;HPM_P2
2021/12/11 00:01:26;;;;;;;14.38;6.82;;;-1.40;99.90;;;;;;5125386;27;20305;-88
2021/12/11 00:04:01;;;;;;;14.27;7.57;;;-1.40;99.90;;;;;;5101996;27;20117;-87
2021/12/11 00:06:35;;;;;;;20.95;10.23;;;-1.40;99.90;;;;;;5102683;27;20039;-88
2021/12/11 00:09:11;;;;;;;27.45;11.45;;;-1.40;99.90;;;;;;5094947;27;20055;-87
2021/12/11 00:11:41;;;;;;;23.08;10.00;;;-1.40;99.90;;;;;;5124818;27;20079;-88
2021/12/11 00:14:12;;;;;;;25.42;11.57;;;-1.40;99.90;;;;;;5112906;27;20047;-87
2021/12/11 00:16:38;;;;;;;24.52;11.60;;;-1.50;99.90;;;;;;5092996;27;20035;-88
2021/12/11 00:19:16;;;;;;;26.10;10.73;;;-1.50;99.90;;;;;;5117955;27;20035;-87
2021/12/11 00:21:42;;;;;;;34.65;12.68;;;-1.50;99.90;;;;;;5098537;27;20143;-88
2021/12/11 00:24:14;;;;;;;22.67;9.75;;;-1.40;99.90;;;;;;5103403;27;20039;-87
2021/12/11 00:26:50;;;;;;;20.95;10.25;;;-1.50;99.90;;;;;;5122107;27;20085;-87
2021/12/11 00:29:21;;;;;;;24.35;11.13;;;-1.50;99.90;;;;;;5094246;27;20046;-87
2021/12/11 00:31:51;;;;;;;22.17;8.77;;;-1.50;99.90;;;;;;5109736;27;20035;-88
2021/12/11 00:34:19;;;;;;;23.60;9.63;;;-1.50;99.90;;;;;;5108493;27;20074;-88
2021/12/11 00:36:59;;;;;;;22.58;9.30;;;-1.50;99.90;;;;;;5120333;27;20418;-87
2021/12/11 00:39:26;;;;;;;20.73;8.68;;;-1.50;99.90;;;;;;5107766;27;20046;-88
2021/12/11 00:41:55;;;;;;;24.17;10.32;;;-1.50;99.90;;;;;;5096382;27;20047;-87
2021/12/11 00:44:45;;;;;;;22.08;9.38;;;-1.50;99.90;;;;;;5095519;27;20403;-88
2021/12/11 00:47:16;;;;;;;27.13;10.38;;;-1.50;99.90;;;;;;5111325;27;20035;-88
2021/12/11 00:49:53;;;;;;;21.98;9.70;;;-1.50;99.90;;;;;;5118249;27;20421;-88
2021/12/11 00:52:30;;;;;;;22.00;9.50;;;-1.60;99.90;;;;;;5127713;27;20043;-88
2021/12/11 00:54:57;;;;;;;22.30;9.88;;;-1.60;99.90;;;;;;5112123;27;20053;-89
2021/12/11 00:57:23;;;;;;;27.90;11.90;;;-1.60;99.90;;;;;;5129497;27;20737;-88
2021/12/11 01:00:28;;;;;;;23.52;10.85;;;-1.60;99.90;;;;;;5109511;27;20077;-88
2021/12/11 01:02:55;;;;;;;21.15;9.65;;;-1.60;99.90;;;;;;5009442;28;20147;-88
2021/12/11 01:05:23;;;;;;;24.85;10.07;;;-1.60;99.90;;;;;;5003706;28;20041;-88
2021/12/11 01:07:50;;;;;;;22.92;11.32;;;-1.60;99.90;;;;;;5017157;28;20057;-88
2021/12/11 01:10:23;;;;;;;20.10;9.57;;;-1.60;99.90;;;;;;5014606;28;20052;-88
2021/12/11 01:12:58;;;;;;;22.25;10.60;;;-1.60;99.90;;;;;;4997994;28;20041;-88
2021/12/11 01:15:40;;;;;;;25.58;11.40;;;-1.60;99.90;;;;;;5007469;28;20049;-88
2021/12/11 01:20:59;;;;;;;19.77;8.40;;;-1.60;99.90;;;;;;5022541;28;20053;-88
2021/12/11 01:23:47;;;;;;;19.60;9.93;;;-1.60;99.90;;;;;;5004950;28;20045;-88
2021/12/11 01:26:17;;;;;;;23.85;9.80;;;-1.60;99.90;;;;;;5009946;28;20064;-87
2021/12/11 01:28:43;;;;;;;20.92;10.02;;;-1.60;99.90;;;;;;5022591;28;20067;-89
2021/12/11 01:31:12;;;;;;;19.75;10.55;;;-1.70;99.90;;;;;;5006440;28;20151;-89
2021/12/11 01:33:38;;;;;;;21.45;9.55;;;-1.70;99.90;;;;;;5069119;27;20095;-88
2021/12/11 01:36:06;;;;;;;15.10;8.32;;;-1.70;99.90;;;;;;5112047;27;20034;-89
2021/12/11 01:38:32;;;;;;;25.55;10.55;;;-1.70;99.90;;;;;;5097032;27;20042;-88
2021/12/11 01:41:02;;;;;;;21.02;10.32;;;-1.70;99.90;;;;;;5100321;27;20080;-88
2021/12/11 01:43:30;;;;;;;21.30;10.27;;;-1.70;99.90;;;;;;5124129;27;20030;-88
2021/12/11 01:45:58;;;;;;;18.75;8.48;;;-1.70;99.90;;;;;;5112020;27;20046;-89
2021/12/11 01:48:30;;;;;;;22.58;11.48;;;-1.80;99.90;;;;;;5118672;27;20046;-88
2021/12/11 01:51:07;;;;;;;20.52;10.10;;;-1.80;99.90;;;;;;5108512;27;20045;-88
2021/12/11 01:53:56;;;;;;;21.65;10.20;;;-1.80;99.90;;;;;;5102708;27;20441;-87
2021/12/11 01:56:24;;;;;;;22.67;10.43;;;-1.80;99.90;;;;;;5107456;27;20100;-88
2021/12/11 01:58:58;;;;;;;17.42;8.73;;;-1.80;99.90;;;;;;5092511;27;20126;-89
2021/12/11 02:01:39;;;;;;;19.75;9.80;;;-1.80;99.90;;;;;;5097720;27;20042;-88
2021/12/11 02:04:07;;;;;;;18.88;8.65;;;-1.90;99.90;;;;;;5112334;27;20429;-89
2021/12/11 02:06:37;;;;;;;21.95;8.48;;;-1.90;99.90;;;;;;5128105;27;20051;-88
2021/12/11 02:09:13;;;;;;;17.17;8.32;;;-1.90;99.90;;;;;;5111863;27;20046;-88
2021/12/11 02:11:39;;;;;;;21.38;10.00;;;-1.90;99.90;;;;;;5105245;27;20054;-89
2021/12/11 02:14:06;;;;;;;18.65;8.75;;;-1.90;99.90;;;;;;5122470;27;20050;-89
2021/12/11 02:16:45;;;;;;;20.83;9.40;;;-1.90;99.90;;;;;;5098682;27;20047;-88
2021/12/11 02:19:23;;;;;;;17.50;8.35;;;-1.90;99.90;;;;;;5121838;27;20082;-89
2021/12/11 02:22:00;;;;;;;23.33;10.07;;;-1.90;99.90;;;;;;5114756;27;20180;-88
2021/12/11 02:24:34;;;;;;;21.30;9.07;;;-1.90;99.90;;;;;;5100102;27;20084;-88
2021/12/11 02:27:01;;;;;;;16.73;9.18;;;-1.90;99.90;;;;;;5115272;27;20403;-87
2021/12/11 02:29:44;;;;;;;17.45;8.18;;;-1.90;99.90;;;;;;5100970;27;20346;-88
2021/12/11 02:32:39;;;;;;;19.95;8.65;;;-2.00;99.90;;;;;;5124713;27;20046;-89
2021/12/11 02:35:12;;;;;;;19.65;8.05;;;-2.00;99.90;;;;;;5119681;27;20049;-89
2021/12/11 02:37:44;;;;;;;16.27;8.10;;;-2.00;99.90;;;;;;5100454;27;20398;-89
2021/12/11 02:40:29;;;;;;;19.10;9.30;;;-2.00;99.90;;;;;;5115900;27;20130;-88
2021/12/11 02:43:03;;;;;;;16.52;8.40;;;-2.00;99.90;;;;;;5124270;27;20039;-89
2021/12/11 02:45:32;;;;;;;19.65;9.25;;;-2.00;99.90;;;;;;5121543;27;20134;-89
2021/12/11 02:48:11;;;;;;;13.10;7.18;;;-2.00;99.90;;;;;;5105145;27;20428;-89
2021/12/11 02:50:56;;;;;;;20.50;9.13;;;-2.00;99.90;;;;;;5123105;27;20403;-88
2021/12/11 02:53:34;;;;;;;16.63;7.50;;;-2.10;99.90;;;;;;5111036;27;20039;-89
2021/12/11 02:56:08;;;;;;;14.57;7.38;;;-2.10;99.90;;;;;;5104822;27;20039;-89
2021/12/11 02:58:38;;;;;;;17.48;7.90;;;-2.10;99.90;;;;;;5103756;27;20043;-88
2021/12/11 03:01:24;;;;;;;17.65;7.78;;;-2.10;99.90;;;;;;5108287;27;20369;-89
2021/12/11 03:03:59;;;;;;;15.90;7.00;;;-2.10;99.90;;;;;;5127011;27;20109;-88
2021/12/11 03:06:28;;;;;;;14.48;6.95;;;-2.10;99.90;;;;;;5097924;27;20047;-90
2021/12/11 03:08:58;;;;;;;12.85;5.65;;;-2.10;99.90;;;;;;5118018;27;20499;-89
2021/12/11 03:11:28;;;;;;;14.20;6.33;;;-2.10;99.90;;;;;;5100126;27;20043;-88
2021/12/11 03:13:55;;;;;;;12.82;6.32;;;-2.10;99.90;;;;;;5118650;27;20167;-90
2021/12/11 03:16:27;;;;;;;12.85;6.60;;;-2.10;99.90;;;;;;5106956;27;20031;-89
2021/12/11 03:18:55;;;;;;;13.80;6.15;;;-2.10;99.90;;;;;;5113110;27;20047;-90
2021/12/11 03:21:21;;;;;;;15.40;6.30;;;-2.10;99.90;;;;;;5120235;27;20031;-89
2021/12/11 03:23:49;;;;;;;15.32;7.32;;;-2.20;99.90;;;;;;5120119;27;20370;-89
2021/12/11 03:26:14;;;;;;;14.40;6.50;;;-2.20;99.90;;;;;;5108396;27;20122;-89
2021/12/11 03:28:40;;;;;;;16.85;6.95;;;-2.10;99.90;;;;;;5100318;27;20194;-89
2021/12/11 03:31:07;;;;;;;13.93;6.65;;;-2.10;99.90;;;;;;5104353;27;20317;-89
2021/12/11 03:33:39;;;;;;;14.48;6.13;;;-2.10;99.90;;;;;;5115705;27;20042;-89
2021/12/11 03:36:08;;;;;;;13.73;6.32;;;-2.10;99.90;;;;;;5101996;27;20035;-89
2021/12/11 03:38:36;;;;;;;13.70;6.68;;;-2.00;99.90;;;;;;5100855;27;20039;-89
2021/12/11 03:41:04;;;;;;;15.70;7.50;;;-2.00;99.90;;;;;;5105922;27;20304;-89
2021/12/11 03:43:31;;;;;;;13.88;6.78;;;-2.00;99.90;;;;;;5099929;27;20084;-90
2021/12/11 03:45:59;;;;;;;14.82;6.70;;;-2.00;99.90;;;;;;5100695;27;20106;-88
2021/12/11 03:48:36;;;;;;;13.63;6.70;;;-2.10;99.90;;;;;;5117287;27;20042;-89
2021/12/11 03:51:05;;;;;;;15.63;7.13;;;-2.10;99.90;;;;;;5109587;27;20048;-89
2021/12/11 03:53:31;;;;;;;14.68;6.50;;;-2.10;99.90;;;;;;5112908;27;20421;-89
2021/12/11 03:56:00;;;;;;;20.35;7.05;;;-2.10;99.90;;;;;;5102207;27;20066;-89
2021/12/11 03:58:28;;;;;;;16.30;6.63;;;-2.20;99.90;;;;;;5123035;27;20038;-89
2021/12/11 04:01:06;;;;;;;14.50;6.88;;;-2.20;99.90;;;;;;5107112;27;20046;-89
2021/12/11 04:03:35;;;;;;;13.80;6.43;;;-2.20;99.90;;;;;;5115153;27;21027;-89
2021/12/11 04:06:03;;;;;;;13.30;6.55;;;-2.20;99.90;;;;;;5123373;27;20047;-91
2021/12/11 04:08:37;;;;;;;15.00;5.90;;;-2.20;99.90;;;;;;5102847;27;20050;-89
2021/12/11 04:11:03;;;;;;;11.73;5.90;;;-2.20;99.90;;;;;;5125444;27;20054;-89
2021/12/11 04:13:29;;;;;;;14.68;7.03;;;-2.10;99.90;;;;;;5103905;27;20068;-90
2021/12/11 04:15:55;;;;;;;23.70;9.85;;;-2.20;99.90;;;;;;5096269;27;20043;-89
2021/12/11 04:18:21;;;;;;;18.02;7.50;;;-2.20;99.90;;;;;;5119272;27;20045;-89
2021/12/11 04:20:50;;;;;;;16.35;8.45;;;-2.20;99.90;;;;;;5098323;27;20088;-89
2021/12/11 04:23:18;;;;;;;15.65;7.43;;;-2.20;99.90;;;;;;5104650;27;20047;-89
2021/12/11 04:25:47;;;;;;;15.07;7.68;;;-2.10;99.90;;;;;;5121697;27;20130;-89
2021/12/11 04:28:16;;;;;;;15.10;6.93;;;-2.10;99.90;;;;;;5109635;27;20443;-89
2021/12/11 04:30:43;;;;;;;13.73;6.45;;;-2.10;99.90;;;;;;5098156;27;20387;-89
2021/12/11 04:33:08;;;;;;;14.32;6.63;;;-2.20;99.90;;;;;;5121583;27;20049;-88
2021/12/11 04:35:34;;;;;;;16.98;7.38;;;-2.20;99.90;;;;;;5109013;27;20046;-90
2021/12/11 04:38:03;;;;;;;17.67;6.65;;;-2.20;99.90;;;;;;5110640;27;20501;-89
2021/12/11 04:40:35;;;;;;;16.33;7.63;;;-2.20;99.90;;;;;;5117868;27;20041;-89
2021/12/11 04:43:06;;;;;;;16.48;7.75;;;-2.20;99.90;;;;;;5118719;27;20043;-89
2021/12/11 04:45:40;;;;;;;16.40;7.25;;;-2.20;99.90;;;;;;5101263;27;20463;-89
2021/12/11 04:48:42;;;;;;;16.70;7.60;;;-2.20;99.90;;;;;;5120178;27;20122;-89
2021/12/11 04:51:12;;;;;;;11.75;5.57;;;-2.20;99.90;;;;;;5129283;27;20524;-89
2021/12/11 04:54:10;;;;;;;16.92;7.43;;;-2.10;99.90;;;;;;5113458;27;20826;-89
2021/12/11 05:02:06;;;;;;;19.67;7.78;;;-2.00;99.90;;;;;;5121610;27;20043;-89
2021/12/11 05:09:56;;;;;;;17.48;8.13;;;-1.90;99.90;;;;;;5122126;27;20141;-89
2021/12/11 05:12:35;;;;;;;19.05;8.55;;;-2.00;99.90;;;;;;5103045;27;20047;-89
2021/12/11 05:15:06;;;;;;;18.23;7.70;;;-2.00;99.90;;;;;;5120274;27;20623;-88
2021/12/11 05:17:31;;;;;;;18.20;7.35;;;-2.00;99.90;;;;;;5103608;27;20401;-89
2021/12/11 05:19:57;;;;;;;15.13;6.53;;;-2.00;99.90;;;;;;5107582;27;20091;-89
2021/12/11 05:22:23;;;;;;;18.35;7.47;;;-2.00;99.90;;;;;;5119366;27;20046;-89
2021/12/11 05:24:53;;;;;;;14.95;7.75;;;-2.00;99.90;;;;;;5098518;27;20400;-90
2021/12/11 05:27:21;;;;;;;17.48;7.05;;;-2.10;99.90;;;;;;5109285;27;20056;-89
2021/12/11 05:29:47;;;;;;;14.10;6.72;;;-2.10;99.90;;;;;;5120220;27;20043;-90
2021/12/11 05:32:15;;;;;;;16.50;8.13;;;-2.10;99.90;;;;;;5121721;27;20046;-89
2021/12/11 05:34:42;;;;;;;17.02;7.53;;;-2.10;99.90;;;;;;5102905;27;20043;-90
2021/12/11 05:37:09;;;;;;;19.15;8.05;;;-2.20;99.90;;;;;;5108340;27;20058;-90
2021/12/11 05:39:35;;;;;;;15.23;8.02;;;-2.20;99.90;;;;;;5121564;27;20039;-90
2021/12/11 05:42:01;;;;;;;19.25;8.38;;;-2.20;99.90;;;;;;5119369;27;20047;-90
2021/12/11 05:44:27;;;;;;;17.38;8.07;;;-2.30;99.90;;;;;;5125755;27;20076;-89
2021/12/11 05:46:54;;;;;;;16.90;8.85;;;-2.20;99.90;;;;;;5127915;27;20069;-88
2021/12/11 05:49:21;;;;;;;23.88;10.50;;;-2.20;99.90;;;;;;5129058;27;20035;-89
2021/12/11 05:51:49;;;;;;;19.70;10.15;;;-2.20;99.90;;;;;;5110155;27;20043;-89
2021/12/11 05:54:24;;;;;;;20.85;9.65;;;-2.20;99.90;;;;;;5103309;27;20138;-90
2021/12/11 05:56:54;;;;;;;19.27;7.85;;;-2.20;99.90;;;;;;5110867;27;20036;-89
2021/12/11 05:59:22;;;;;;;17.27;7.72;;;-2.20;99.90;;;;;;5124241;27;20511;-89
2021/12/11 06:01:56;;;;;;;21.02;8.45;;;-2.20;99.90;;;;;;5116360;27;20043;-89
2021/12/11 06:04:26;;;;;;;18.58;8.43;;;-2.20;99.90;;;;;;5100104;27;20070;-90
2021/12/11 06:06:54;;;;;;;19.80;9.93;;;-2.20;99.90;;;;;;5100465;27;20055;-90
2021/12/11 06:09:21;;;;;;;22.05;9.63;;;-2.20;99.90;;;;;;5107011;27;20035;-89
2021/12/11 06:11:50;;;;;;;17.30;7.80;;;-2.30;99.90;;;;;;5119721;27;20123;-88
2021/12/11 06:14:17;;;;;;;20.15;8.98;;;-2.30;99.90;;;;;;5125107;27;20035;-89
2021/12/11 06:16:48;;;;;;;14.68;7.55;;;-2.30;99.90;;;;;;5117369;27;20072;-89
2021/12/11 06:19:14;;;;;;;18.02;8.57;;;-2.30;99.90;;;;;;5101832;27;20039;-86
2021/12/11 06:21:43;;;;;;;15.73;7.40;;;-2.40;99.90;;;;;;5106750;27;20059;-88
2021/12/11 06:24:09;;;;;;;19.73;8.57;;;-2.30;99.90;;;;;;5109410;27;20418;-88
2021/12/11 06:26:34;;;;;;;15.48;8.85;;;-2.40;99.90;;;;;;5102571;27;20433;-89
2021/12/11 06:29:00;;;;;;;16.60;8.05;;;-2.40;99.90;;;;;;5123997;27;20746;-87
2021/12/11 06:31:26;;;;;;;16.65;8.27;;;-2.40;99.90;;;;;;5124389;27;20038;-88
2021/12/11 06:33:54;;;;;;;15.80;8.00;;;-2.40;99.90;;;;;;5098182;27;20470;-88
2021/12/11 06:36:22;;;;;;;18.95;8.00;;;-2.40;99.90;;;;;;5112771;27;20043;-88
2021/12/11 06:38:52;;;;;;;17.15;8.07;;;-2.40;99.90;;;;;;5107418;27;20071;-89
2021/12/11 06:41:23;;;;;;;15.35;7.15;;;-2.40;99.90;;;;;;5124467;27;20398;-89
2021/12/11 06:43:49;;;;;;;;;;;-2.40;99.90;;;;;;5125128;27;20081;-89
2021/12/11 06:46:16;;;;;;;16.13;8.05;;;-2.50;99.90;;;;;;5107078;27;20463;-89
2021/12/11 06:48:42;;;;;;;19.35;9.45;;;-2.50;99.90;;;;;;5108538;27;20411;-88
2021/12/11 06:51:08;;;;;;;18.38;9.07;;;-2.50;99.90;;;;;;5117675;27;20126;-89
2021/12/11 06:53:45;;;;;;;19.88;8.30;;;-2.50;99.90;;;;;;5125608;27;20456;-88
2021/12/11 06:56:14;;;;;;;19.30;8.57;;;-2.50;99.90;;;;;;5117982;27;20084;-89
2021/12/11 06:58:40;;;;;;;17.27;9.25;;;-2.50;99.90;;;;;;5096920;27;20069;-89
2021/12/11 07:01:07;;;;;;;18.05;8.52;;;-2.50;99.90;;;;;;5096465;27;20036;-88
2021/12/11 07:03:34;;;;;;;16.85;8.30;;;-2.50;99.90;;;;;;5091339;28;20039;-88
2021/12/11 07:06:00;;;;;;;18.92;8.73;;;-2.50;99.90;;;;;;5119300;27;20074;-88
2021/12/11 07:08:28;;;;;;;19.98;8.48;;;-2.50;99.90;;;;;;5097263;27;20487;-88
2021/12/11 07:10:54;;;;;;;19.60;9.40;;;-2.50;99.90;;;;;;5091897;28;20149;-87
2021/12/11 07:13:20;;;;;;;15.73;7.78;;;-2.50;99.90;;;;;;5121072;27;20125;-88
2021/12/11 07:15:46;;;;;;;17.73;9.00;;;-2.50;99.90;;;;;;5111533;27;20043;-88
2021/12/11 07:18:12;;;;;;;21.70;8.25;;;-2.50;99.90;;;;;;5106039;27;20032;-88
2021/12/11 07:20:38;;;;;;;16.58;8.48;;;-2.50;99.90;;;;;;5115728;27;20046;-90
2021/12/11 07:23:04;;;;;;;18.08;9.18;;;-2.50;99.90;;;;;;5114565;27;20135;-87
2021/12/11 07:25:36;;;;;;;16.17;8.63;;;-2.50;99.90;;;;;;5091425;27;20040;-88
2021/12/11 07:28:04;;;;;;;20.38;8.90;;;-2.50;99.90;;;;;;5115313;27;20192;-87
2021/12/11 07:30:33;;;;;;;17.15;8.25;;;-2.50;99.90;;;;;;5098508;27;20031;-86
2021/12/11 07:33:02;;;;;;;21.23;8.40;;;-2.60;99.90;;;;;;5116644;27;20158;-88
2021/12/11 07:35:28;;;;;;;17.73;8.10;;;-2.60;99.90;;;;;;5121603;27;20385;-88
2021/12/11 07:37:54;;;;;;;16.83;7.50;;;-2.60;99.90;;;;;;5123307;27;20040;-86
2021/12/11 07:40:26;;;;;;;18.50;8.75;;;-2.60;99.90;;;;;;5091370;28;20071;-87
2021/12/11 07:42:52;;;;;;;21.55;11.05;;;-2.50;99.90;;;;;;5106133;27;20039;-87
2021/12/11 07:45:19;;;;;;;20.92;8.90;;;-2.50;99.90;;;;;;5094277;27;20512;-86
2021/12/11 07:47:44;;;;;;;18.05;8.00;;;-2.50;99.90;;;;;;5103405;27;20089;-87
2021/12/11 07:50:12;;;;;;;17.75;8.85;;;-2.50;99.90;;;;;;5119110;27;20067;-85
2021/12/11 07:52:38;;;;;;;18.27;8.65;;;-2.50;99.90;;;;;;5112616;27;20039;-88
2021/12/11 07:55:05;;;;;;;16.15;8.60;;;-2.50;99.90;;;;;;5098737;27;20051;-90
2021/12/11 07:57:31;;;;;;;18.48;9.07;;;-2.40;99.90;;;;;;5120014;27;20142;-89
2021/12/11 07:59:57;;;;;;;18.77;8.43;;;-2.50;99.90;;;;;;5094217;28;20563;-89
2021/12/11 08:02:22;;;;;;;20.90;10.02;;;-2.40;99.90;;;;;;5097477;27;20122;-89
2021/12/11 08:04:49;;;;;;;15.82;7.43;;;-2.50;99.90;;;;;;5119302;27;20067;-89
2021/12/11 08:07:14;;;;;;;18.95;8.18;;;-2.80;99.90;;;;;;5116670;27;20043;-88
2021/12/11 08:09:40;;;;;;;16.33;8.75;;;-2.40;99.90;;;;;;5107427;27;20141;-89
2021/12/11 08:12:07;;;;;;;20.48;9.60;;;-2.30;99.90;;;;;;5101455;28;20039;-89
2021/12/11 08:14:33;;;;;;;20.77;10.50;;;-2.40;99.90;;;;;;5094473;28;20043;-88
2021/12/11 08:17:04;;;;;;;23.52;9.98;;;-2.30;99.90;;;;;;5102368;28;20052;-89
2021/12/11 08:19:32;;;;;;;17.42;7.90;;;-2.30;99.90;;;;;;5098818;28;20040;-89
